sensor_id;sensor_type;location;lat;lon;timestamp;P1;durP1;ratioP1;P2;durP2;ratioP2
6013;SDS011;3035;49.928;8.410;2023-02-08T00:01:06;11.20;;;6.17;;
6013;SDS011;3035;49.928;8.410;2023-02-08T00:03:34;11.50;;;5.63;;
6013;SDS011;3035;49.928;8.410;2023-02-08T00:06:03;17.70;;;6.63;;
6013;SDS011;3035;49.928;8.410;2023-02-08T00:08:31;13.20;;;7.10;;
6013;SDS011;3035;49.928;8.410;2023-02-08T00:10:59;16.03;;;6.73;;
6013;SDS011;3035;49.928;8.410;2023-02-08T00:13:27;8.20;;;5.43;;
6013;SDS011;3035;49.928;8.410;2023-02-08T00:15:56;9.50;;;5.50;;
6013;SDS011;3035;49.928;8.410;2023-02-08T00:18:41;15.90;;;6.20;;
6013;SDS011;3035;49.928;8.410;2023-02-08T00:21:11;11.67;;;6.50;;
6013;SDS011;3035;49.928;8.410;2023-02-08T00:23:39;10.47;;;5.93;;
6013;SDS011;3035;49.928;8.410;2023-02-08T00:26:07;15.00;;;7.47;;
6013;SDS011;3035;49.928;8.410;2023-02-08T00:28:35;15.50;;;5.90;;
6013;SDS011;3035;49.928;8.410;2023-02-08T00:31:04;11.50;;;5.87;;
6013;SDS011;3035;49.928;8.410;2023-02-08T00:33:32;14.33;;;7.00;;
6013;SDS011;3035;49.928;8.410;2023-02-08T00:36:00;17.80;;;6.23;;
6013;SDS011;3035;49.928;8.410;2023-02-08T00:38:28;10.20;;;5.43;;
6013;SDS011;3035;49.928;8.410;2023-02-08T00:40:56;10.50;;;5.47;;
6013;SDS011;3035;49.928;8.410;2023-02-08T00:43:25;9.27;;;5.57;;
6013;SDS011;3035;49.928;8.410;2023-02-08T00:45:55;8.53;;;5.70;;
6013;SDS011;3035;49.928;8.410;2023-02-08T00:48:23;10.23;;;6.17;;
6013;SDS011;3035;49.928;8.410;2023-02-08T00:50:59;9.73;;;5.57;;
6013;SDS011;3035;49.928;8.410;2023-02-08T00:53:35;11.57;;;6.47;;
6013;SDS011;3035;49.928;8.410;2023-02-08T00:56:04;13.10;;;5.80;;
6013;SDS011;3035;49.928;8.410;2023-02-08T00:58:32;10.30;;;5.30;;
6013;SDS011;3035;49.928;8.410;2023-02-08T01:01:02;11.23;;;6.20;;
6013;SDS011;3035;49.928;8.410;2023-02-08T01:03:32;7.17;;;4.20;;
6013;SDS011;3035;49.928;8.410;2023-02-08T01:06:00;11.10;;;5.17;;
6013;SDS011;3035;49.928;8.410;2023-02-08T01:08:28;11.60;;;6.00;;
6013;SDS011;3035;49.928;8.410;2023-02-08T01:11:02;11.63;;;5.40;;
6013;SDS011;3035;49.928;8.410;2023-02-08T01:13:40;10.33;;;5.00;;
6013;SDS011;3035;49.928;8.410;2023-02-08T01:16:12;8.03;;;5.20;;
6013;SDS011;3035;49.928;8.410;2023-02-08T01:18:40;12.23;;;6.07;;
6013;SDS011;3035;49.928;8.410;2023-02-08T01:21:09;8.23;;;4.93;;
6013;SDS011;3035;49.928;8.410;2023-02-08T01:23:36;9.23;;;4.67;;
6013;SDS011;3035;49.928;8.410;2023-02-08T01:26:04;12.20;;;5.27;;
6013;SDS011;3035;49.928;8.410;2023-02-08T01:28:32;6.63;;;4.00;;
6013;SDS011;3035;49.928;8.410;2023-02-08T01:31:07;9.50;;;4.77;;
6013;SDS011;3035;49.928;8.410;2023-02-08T01:33:35;8.20;;;4.43;;
6013;SDS011;3035;49.928;8.410;2023-02-08T01:36:03;14.50;;;5.20;;
6013;SDS011;3035;49.928;8.410;2023-02-08T01:38:33;10.03;;;5.40;;
6013;SDS011;3035;49.928;8.410;2023-02-08T01:41:03;9.40;;;5.50;;
6013;SDS011;3035;49.928;8.410;2023-02-08T01:43:33;7.70;;;4.33;;
6013;SDS011;3035;49.928;8.410;2023-02-08T01:46:00;12.57;;;5.77;;
6013;SDS011;3035;49.928;8.410;2023-02-08T01:48:30;7.20;;;4.50;;
6013;SDS011;3035;49.928;8.410;2023-02-08T01:51:02;11.07;;;5.57;;
6013;SDS011;3035;49.928;8.410;2023-02-08T01:53:29;11.73;;;5.67;;
6013;SDS011;3035;49.928;8.410;2023-02-08T01:55:58;9.03;;;4.13;;
6013;SDS011;3035;49.928;8.410;2023-02-08T01:58:26;15.30;;;5.37;;
6013;SDS011;3035;49.928;8.410;2023-02-08T02:00:54;7.47;;;5.10;;
6013;SDS011;3035;49.928;8.410;2023-02-08T02:03:22;10.00;;;5.13;;
6013;SDS011;3035;49.928;8.410;2023-02-08T02:05:54;8.07;;;4.43;;
6013;SDS011;3035;49.928;8.410;2023-02-08T02:08:20;14.87;;;6.00;;
6013;SDS011;3035;49.928;8.410;2023-02-08T02:10:49;9.53;;;5.83;;
6013;SDS011;3035;49.928;8.410;2023-02-08T02:13:18;11.13;;;5.90;;
6013;SDS011;3035;49.928;8.410;2023-02-08T02:15:46;10.13;;;5.23;;
6013;SDS011;3035;49.928;8.410;2023-02-08T02:18:22;12.97;;;5.93;;
6013;SDS011;3035;49.928;8.410;2023-02-08T02:20:59;14.47;;;6.27;;
6013;SDS011;3035;49.928;8.410;2023-02-08T02:26:47;8.80;;;5.23;;
6013;SDS011;3035;49.928;8.410;2023-02-08T02:29:36;8.50;;;5.93;;
6013;SDS011;3035;49.928;8.410;2023-02-08T02:32:10;10.13;;;5.53;;
6013;SDS011;3035;49.928;8.410;2023-02-08T02:34:50;11.43;;;5.63;;
6013;SDS011;3035;49.928;8.410;2023-02-08T02:37:25;12.77;;;6.30;;
6013;SDS011;3035;49.928;8.410;2023-02-08T02:42:56;17.37;;;5.77;;
6013;SDS011;3035;49.928;8.410;2023-02-08T02:45:34;10.20;;;5.47;;
6013;SDS011;3035;49.928;8.410;2023-02-08T02:48:05;7.17;;;4.77;;
6013;SDS011;3035;49.928;8.410;2023-02-08T02:50:42;10.03;;;5.10;;
6013;SDS011;3035;49.928;8.410;2023-02-08T02:53:15;12.57;;;5.97;;
6013;SDS011;3035;49.928;8.410;2023-02-08T02:55:57;11.47;;;5.20;;
6013;SDS011;3035;49.928;8.410;2023-02-08T02:58:24;8.73;;;5.30;;
6013;SDS011;3035;49.928;8.410;2023-02-08T03:00:54;8.63;;;5.27;;
6013;SDS011;3035;49.928;8.410;2023-02-08T03:03:22;16.67;;;6.30;;
6013;SDS011;3035;49.928;8.410;2023-02-08T03:05:51;7.97;;;4.67;;
6013;SDS011;3035;49.928;8.410;2023-02-08T03:08:23;12.83;;;6.30;;
6013;SDS011;3035;49.928;8.410;2023-02-08T03:13:59;15.53;;;6.13;;
6013;SDS011;3035;49.928;8.410;2023-02-08T03:19:26;10.90;;;5.47;;
6013;SDS011;3035;49.928;8.410;2023-02-08T03:22:12;12.27;;;6.53;;
6013;SDS011;3035;49.928;8.410;2023-02-08T03:24:45;10.40;;;5.67;;
6013;SDS011;3035;49.928;8.410;2023-02-08T03:27:48;9.43;;;6.03;;
6013;SDS011;3035;49.928;8.410;2023-02-08T03:30:16;11.00;;;5.87;;
6013;SDS011;3035;49.928;8.410;2023-02-08T03:32:59;9.07;;;6.03;;
6013;SDS011;3035;49.928;8.410;2023-02-08T03:35:33;17.10;;;6.57;;
6013;SDS011;3035;49.928;8.410;2023-02-08T03:38:08;9.87;;;5.23;;
6013;SDS011;3035;49.928;8.410;2023-02-08T03:40:41;9.80;;;5.30;;
6013;SDS011;3035;49.928;8.410;2023-02-08T03:43:12;11.20;;;5.10;;
6013;SDS011;3035;49.928;8.410;2023-02-08T03:45:44;10.57;;;5.50;;
6013;SDS011;3035;49.928;8.410;2023-02-08T03:48:20;9.30;;;5.47;;
6013;SDS011;3035;49.928;8.410;2023-02-08T03:50:48;9.07;;;5.73;;
6013;SDS011;3035;49.928;8.410;2023-02-08T03:53:16;8.80;;;5.83;;
6013;SDS011;3035;49.928;8.410;2023-02-08T03:55:44;7.13;;;4.97;;
6013;SDS011;3035;49.928;8.410;2023-02-08T03:58:20;11.23;;;6.20;;
6013;SDS011;3035;49.928;8.410;2023-02-08T04:00:51;14.47;;;7.10;;
6013;SDS011;3035;49.928;8.410;2023-02-08T04:03:19;12.30;;;5.70;;
6013;SDS011;3035;49.928;8.410;2023-02-08T04:05:47;9.83;;;5.37;;
6013;SDS011;3035;49.928;8.410;2023-02-08T04:08:15;13.97;;;5.80;;
6013;SDS011;3035;49.928;8.410;2023-02-08T04:10:43;8.03;;;5.70;;
6013;SDS011;3035;49.928;8.410;2023-02-08T04:13:11;11.33;;;5.47;;
6013;SDS011;3035;49.928;8.410;2023-02-08T04:15:40;9.07;;;5.87;;
6013;SDS011;3035;49.928;8.410;2023-02-08T04:18:08;19.53;;;6.27;;
6013;SDS011;3035;49.928;8.410;2023-02-08T04:20:36;6.77;;;4.60;;
6013;SDS011;3035;49.928;8.410;2023-02-08T04:23:05;7.93;;;5.13;;
6013;SDS011;3035;49.928;8.410;2023-02-08T04:25:34;11.80;;;5.43;;
6013;SDS011;3035;49.928;8.410;2023-02-08T04:28:02;16.23;;;5.90;;
6013;SDS011;3035;49.928;8.410;2023-02-08T04:30:30;12.70;;;5.80;;
6013;SDS011;3035;49.928;8.410;2023-02-08T04:32:59;8.20;;;5.87;;
6013;SDS011;3035;49.928;8.410;2023-02-08T04:35:28;11.23;;;5.50;;
6013;SDS011;3035;49.928;8.410;2023-02-08T04:37:56;9.60;;;5.50;;
6013;SDS011;3035;49.928;8.410;2023-02-08T04:40:24;6.80;;;3.90;;
6013;SDS011;3035;49.928;8.410;2023-02-08T04:42:52;10.33;;;6.10;;
6013;SDS011;3035;49.928;8.410;2023-02-08T04:45:21;11.93;;;5.50;;
6013;SDS011;3035;49.928;8.410;2023-02-08T04:47:49;9.40;;;5.03;;
6013;SDS011;3035;49.928;8.410;2023-02-08T04:50:17;6.93;;;4.93;;
6013;SDS011;3035;49.928;8.410;2023-02-08T04:52:45;9.37;;;5.80;;
6013;SDS011;3035;49.928;8.410;2023-02-08T04:55:15;7.50;;;4.40;;
6013;SDS011;3035;49.928;8.410;2023-02-08T04:57:43;9.83;;;5.10;;
6013;SDS011;3035;49.928;8.410;2023-02-08T05:00:11;8.50;;;5.50;;
6013;SDS011;3035;49.928;8.410;2023-02-08T05:02:40;8.90;;;6.30;;
6013;SDS011;3035;49.928;8.410;2023-02-08T05:05:08;9.67;;;4.80;;
6013;SDS011;3035;49.928;8.410;2023-02-08T05:07:37;9.80;;;4.60;;
6013;SDS011;3035;49.928;8.410;2023-02-08T05:10:05;10.13;;;4.93;;
6013;SDS011;3035;49.928;8.410;2023-02-08T05:12:34;7.93;;;4.47;;
6013;SDS011;3035;49.928;8.410;2023-02-08T05:15:04;10.43;;;5.33;;
6013;SDS011;3035;49.928;8.410;2023-02-08T05:17:32;7.60;;;5.07;;
6013;SDS011;3035;49.928;8.410;2023-02-08T05:20:00;9.60;;;5.53;;
6013;SDS011;3035;49.928;8.410;2023-02-08T05:22:30;15.27;;;5.57;;
6013;SDS011;3035;49.928;8.410;2023-02-08T05:24:58;8.27;;;4.97;;
6013;SDS011;3035;49.928;8.410;2023-02-08T05:27:26;10.43;;;5.60;;
6013;SDS011;3035;49.928;8.410;2023-02-08T05:29:54;9.87;;;5.37;;
6013;SDS011;3035;49.928;8.410;2023-02-08T05:32:22;8.77;;;5.13;;
6013;SDS011;3035;49.928;8.410;2023-02-08T05:34:51;8.47;;;4.83;;
6013;SDS011;3035;49.928;8.410;2023-02-08T05:37:19;9.03;;;5.47;;
6013;SDS011;3035;49.928;8.410;2023-02-08T05:39:48;12.77;;;5.67;;
6013;SDS011;3035;49.928;8.410;2023-02-08T05:42:17;6.57;;;4.10;;
6013;SDS011;3035;49.928;8.410;2023-02-08T05:44:45;7.90;;;4.57;;
6013;SDS011;3035;49.928;8.410;2023-02-08T05:47:13;10.47;;;5.20;;
6013;SDS011;3035;49.928;8.410;2023-02-08T05:49:41;17.70;;;4.70;;
6013;SDS011;3035;49.928;8.410;2023-02-08T05:52:09;12.70;;;4.97;;
6013;SDS011;3035;49.928;8.410;2023-02-08T05:54:38;8.43;;;4.80;;
6013;SDS011;3035;49.928;8.410;2023-02-08T05:57:06;7.73;;;4.50;;
6013;SDS011;3035;49.928;8.410;2023-02-08T05:59:34;10.97;;;5.43;;
6013;SDS011;3035;49.928;8.410;2023-02-08T06:02:03;8.40;;;5.43;;
6013;SDS011;3035;49.928;8.410;2023-02-08T06:04:32;7.60;;;4.73;;
6013;SDS011;3035;49.928;8.410;2023-02-08T06:07:00;9.03;;;5.40;;
6013;SDS011;3035;49.928;8.410;2023-02-08T06:09:28;10.63;;;5.60;;
6013;SDS011;3035;49.928;8.410;2023-02-08T06:11:56;9.10;;;5.97;;
6013;SDS011;3035;49.928;8.410;2023-02-08T06:14:24;12.70;;;5.90;;
6013;SDS011;3035;49.928;8.410;2023-02-08T06:16:53;12.53;;;5.40;;
6013;SDS011;3035;49.928;8.410;2023-02-08T06:19:22;10.13;;;6.00;;
6013;SDS011;3035;49.928;8.410;2023-02-08T06:21:50;9.10;;;6.03;;
6013;SDS011;3035;49.928;8.410;2023-02-08T06:24:18;12.50;;;5.83;;
6013;SDS011;3035;49.928;8.410;2023-02-08T06:26:46;9.83;;;5.73;;
6013;SDS011;3035;49.928;8.410;2023-02-08T06:29:15;11.50;;;6.60;;
6013;SDS011;3035;49.928;8.410;2023-02-08T06:31:43;8.47;;;5.03;;
6013;SDS011;3035;49.928;8.410;2023-02-08T06:34:12;12.50;;;5.97;;
6013;SDS011;3035;49.928;8.410;2023-02-08T06:36:41;9.57;;;5.00;;
6013;SDS011;3035;49.928;8.410;2023-02-08T06:39:09;11.50;;;5.90;;
6013;SDS011;3035;49.928;8.410;2023-02-08T06:41:37;13.83;;;6.50;;
6013;SDS011;3035;49.928;8.410;2023-02-08T06:44:06;11.17;;;5.50;;
6013;SDS011;3035;49.928;8.410;2023-02-08T06:46:34;11.13;;;5.27;;
6013;SDS011;3035;49.928;8.410;2023-02-08T06:49:02;12.00;;;6.30;;
6013;SDS011;3035;49.928;8.410;2023-02-08T06:51:30;13.23;;;5.80;;
6013;SDS011;3035;49.928;8.410;2023-02-08T06:53:59;12.40;;;6.60;;
6013;SDS011;3035;49.928;8.410;2023-02-08T06:56:27;10.23;;;5.87;;
6013;SDS011;3035;49.928;8.410;2023-02-08T06:58:56;10.90;;;6.80;;
6013;SDS011;3035;49.928;8.410;2023-02-08T07:01:24;12.50;;;5.57;;
6013;SDS011;3035;49.928;8.410;2023-02-08T07:03:53;11.40;;;6.07;;
6013;SDS011;3035;49.928;8.410;2023-02-08T07:06:21;12.17;;;6.23;;
6013;SDS011;3035;49.928;8.410;2023-02-08T07:08:49;12.40;;;6.03;;
6013;SDS011;3035;49.928;8.410;2023-02-08T07:11:18;14.97;;;6.80;;
6013;SDS011;3035;49.928;8.410;2023-02-08T07:13:46;12.30;;;6.80;;
6013;SDS011;3035;49.928;8.410;2023-02-08T07:16:15;12.50;;;6.87;;
6013;SDS011;3035;49.928;8.410;2023-02-08T07:18:44;10.10;;;6.30;;
6013;SDS011;3035;49.928;8.410;2023-02-08T07:21:12;15.23;;;6.30;;
6013;SDS011;3035;49.928;8.410;2023-02-08T07:23:40;11.10;;;7.07;;
6013;SDS011;3035;49.928;8.410;2023-02-08T07:26:09;14.10;;;7.00;;
6013;SDS011;3035;49.928;8.410;2023-02-08T07:28:37;10.90;;;6.10;;
6013;SDS011;3035;49.928;8.410;2023-02-08T07:31:07;10.67;;;6.47;;
6013;SDS011;3035;49.928;8.410;2023-02-08T07:33:34;9.27;;;5.87;;
6013;SDS011;3035;49.928;8.410;2023-02-08T07:36:03;13.50;;;6.43;;
6013;SDS011;3035;49.928;8.410;2023-02-08T07:38:31;9.33;;;5.50;;
6013;SDS011;3035;49.928;8.410;2023-02-08T07:41:01;11.57;;;6.83;;
6013;SDS011;3035;49.928;8.410;2023-02-08T07:43:32;17.90;;;8.10;;
6013;SDS011;3035;49.928;8.410;2023-02-08T07:46:07;10.23;;;6.23;;
6013;SDS011;3035;49.928;8.410;2023-02-08T07:48:35;8.73;;;6.17;;
6013;SDS011;3035;49.928;8.410;2023-02-08T07:51:03;11.80;;;6.73;;
6013;SDS011;3035;49.928;8.410;2023-02-08T07:53:32;13.77;;;6.37;;
6013;SDS011;3035;49.928;8.410;2023-02-08T07:56:00;17.03;;;5.90;;
6013;SDS011;3035;49.928;8.410;2023-02-08T07:58:28;14.60;;;6.90;;
6013;SDS011;3035;49.928;8.410;2023-02-08T08:00:57;18.70;;;7.53;;
6013;SDS011;3035;49.928;8.410;2023-02-08T08:03:25;10.60;;;5.93;;
6013;SDS011;3035;49.928;8.410;2023-02-08T08:05:54;7.87;;;5.13;;
6013;SDS011;3035;49.928;8.410;2023-02-08T08:08:23;11.87;;;5.90;;
6013;SDS011;3035;49.928;8.410;2023-02-08T08:10:51;9.77;;;5.80;;
6013;SDS011;3035;49.928;8.410;2023-02-08T08:13:19;12.27;;;6.43;;
6013;SDS011;3035;49.928;8.410;2023-02-08T08:15:47;13.27;;;5.57;;
6013;SDS011;3035;49.928;8.410;2023-02-08T08:18:15;17.70;;;6.60;;
6013;SDS011;3035;49.928;8.410;2023-02-08T08:20:44;9.20;;;6.33;;
6013;SDS011;3035;49.928;8.410;2023-02-08T08:23:12;8.20;;;4.87;;
6013;SDS011;3035;49.928;8.410;2023-02-08T08:25:40;9.10;;;5.40;;
6013;SDS011;3035;49.928;8.410;2023-02-08T08:28:09;8.40;;;4.90;;
6013;SDS011;3035;49.928;8.410;2023-02-08T08:30:40;13.10;;;6.40;;
6013;SDS011;3035;49.928;8.410;2023-02-08T08:33:06;11.20;;;6.30;;
6013;SDS011;3035;49.928;8.410;2023-02-08T08:35:34;8.07;;;5.23;;
6013;SDS011;3035;49.928;8.410;2023-02-08T08:38:02;7.60;;;5.20;;
6013;SDS011;3035;49.928;8.410;2023-02-08T08:40:30;10.30;;;5.07;;
6013;SDS011;3035;49.928;8.410;2023-02-08T08:42:58;11.50;;;5.57;;
6013;SDS011;3035;49.928;8.410;2023-02-08T08:45:27;9.37;;;4.53;;
6013;SDS011;3035;49.928;8.410;2023-02-08T08:47:55;10.43;;;5.27;;
6013;SDS011;3035;49.928;8.410;2023-02-08T08:50:23;10.27;;;5.57;;
6013;SDS011;3035;49.928;8.410;2023-02-08T08:52:51;11.27;;;5.40;;
6013;SDS011;3035;49.928;8.410;2023-02-08T08:55:20;9.30;;;5.13;;
6013;SDS011;3035;49.928;8.410;2023-02-08T08:57:48;11.70;;;6.40;;
6013;SDS011;3035;49.928;8.410;2023-02-08T09:00:16;11.27;;;6.40;;
6013;SDS011;3035;49.928;8.410;2023-02-08T09:02:44;9.87;;;5.63;;
6013;SDS011;3035;49.928;8.410;2023-02-08T09:05:13;12.77;;;7.07;;
6013;SDS011;3035;49.928;8.410;2023-02-08T09:07:41;11.43;;;5.70;;
6013;SDS011;3035;49.928;8.410;2023-02-08T09:10:10;10.23;;;5.37;;
6013;SDS011;3035;49.928;8.410;2023-02-08T09:12:38;10.30;;;5.73;;
6013;SDS011;3035;49.928;8.410;2023-02-08T09:15:08;9.60;;;5.70;;
6013;SDS011;3035;49.928;8.410;2023-02-08T09:17:36;14.50;;;6.43;;
6013;SDS011;3035;49.928;8.410;2023-02-08T09:20:04;10.47;;;6.50;;
6013;SDS011;3035;49.928;8.410;2023-02-08T09:22:33;12.03;;;6.23;;
6013;SDS011;3035;49.928;8.410;2023-02-08T09:25:01;8.83;;;5.13;;
6013;SDS011;3035;49.928;8.410;2023-02-08T09:27:29;22.97;;;10.70;;
6013;SDS011;3035;49.928;8.410;2023-02-08T09:29:58;23.13;;;11.13;;
6013;SDS011;3035;49.928;8.410;2023-02-08T09:32:29;16.93;;;9.03;;
6013;SDS011;3035;49.928;8.410;2023-02-08T09:34:55;13.03;;;5.90;;
6013;SDS011;3035;49.928;8.410;2023-02-08T09:37:24;11.70;;;6.60;;
6013;SDS011;3035;49.928;8.410;2023-02-08T09:39:52;10.03;;;5.70;;
6013;SDS011;3035;49.928;8.410;2023-02-08T09:42:23;9.90;;;6.40;;
6013;SDS011;3035;49.928;8.410;2023-02-08T09:44:54;12.40;;;5.73;;
6013;SDS011;3035;49.928;8.410;2023-02-08T09:47:30;14.40;;;6.60;;
6013;SDS011;3035;49.928;8.410;2023-02-08T09:50:09;11.90;;;7.00;;
6013;SDS011;3035;49.928;8.410;2023-02-08T09:52:37;11.63;;;6.30;;
6013;SDS011;3035;49.928;8.410;2023-02-08T09:58:04;13.47;;;6.17;;
6013;SDS011;3035;49.928;8.410;2023-02-08T10:00:37;12.00;;;6.50;;
6013;SDS011;3035;49.928;8.410;2023-02-08T10:03:16;13.20;;;6.80;;
6013;SDS011;3035;49.928;8.410;2023-02-08T10:05:53;16.37;;;8.80;;
6013;SDS011;3035;49.928;8.410;2023-02-08T10:08:21;19.57;;;8.77;;
6013;SDS011;3035;49.928;8.410;2023-02-08T10:10:53;17.17;;;9.37;;
6013;SDS011;3035;49.928;8.410;2023-02-08T10:13:30;13.43;;;7.57;;
6013;SDS011;3035;49.928;8.410;2023-02-08T10:16:07;19.33;;;8.50;;
6013;SDS011;3035;49.928;8.410;2023-02-08T10:18:49;15.17;;;7.97;;
6013;SDS011;3035;49.928;8.410;2023-02-08T10:21:23;23.63;;;8.37;;
6013;SDS011;3035;49.928;8.410;2023-02-08T10:23:59;18.00;;;8.33;;
6013;SDS011;3035;49.928;8.410;2023-02-08T10:27:04;11.93;;;6.53;;
6013;SDS011;3035;49.928;8.410;2023-02-08T10:29:39;15.40;;;6.63;;
6013;SDS011;3035;49.928;8.410;2023-02-08T10:35:02;10.97;;;6.20;;
6013;SDS011;3035;49.928;8.410;2023-02-08T10:37:30;12.17;;;7.03;;
6013;SDS011;3035;49.928;8.410;2023-02-08T10:43:02;14.23;;;6.60;;
6013;SDS011;3035;49.928;8.410;2023-02-08T10:48:54;15.70;;;8.17;;
6013;SDS011;3035;49.928;8.410;2023-02-08T10:51:28;13.47;;;6.00;;
6013;SDS011;3035;49.928;8.410;2023-02-08T10:53:56;13.17;;;7.37;;
6013;SDS011;3035;49.928;8.410;2023-02-08T10:56:30;13.90;;;6.37;;
6013;SDS011;3035;49.928;8.410;2023-02-08T10:59:14;13.10;;;6.30;;
6013;SDS011;3035;49.928;8.410;2023-02-08T11:01:48;12.30;;;6.07;;
6013;SDS011;3035;49.928;8.410;2023-02-08T11:04:16;11.47;;;7.00;;
6013;SDS011;3035;49.928;8.410;2023-02-08T11:06:45;11.90;;;6.97;;
6013;SDS011;3035;49.928;8.410;2023-02-08T11:09:19;11.43;;;6.80;;
6013;SDS011;3035;49.928;8.410;2023-02-08T11:11:57;14.30;;;6.87;;
6013;SDS011;3035;49.928;8.410;2023-02-08T11:14:26;10.27;;;6.47;;
6013;SDS011;3035;49.928;8.410;2023-02-08T11:16:54;14.57;;;7.50;;
6013;SDS011;3035;49.928;8.410;2023-02-08T11:19:26;10.67;;;6.70;;
6013;SDS011;3035;49.928;8.410;2023-02-08T11:22:00;18.57;;;8.10;;
6013;SDS011;3035;49.928;8.410;2023-02-08T11:24:29;14.30;;;7.17;;
6013;SDS011;3035;49.928;8.410;2023-02-08T11:27:01;13.30;;;6.90;;
6013;SDS011;3035;49.928;8.410;2023-02-08T11:29:30;16.37;;;8.50;;
6013;SDS011;3035;49.928;8.410;2023-02-08T11:31:59;13.90;;;6.97;;
6013;SDS011;3035;49.928;8.410;2023-02-08T11:34:29;12.43;;;7.43;;
6013;SDS011;3035;49.928;8.410;2023-02-08T11:37:02;10.57;;;6.17;;
6013;SDS011;3035;49.928;8.410;2023-02-08T11:39:41;11.80;;;6.13;;
6013;SDS011;3035;49.928;8.410;2023-02-08T11:42:18;17.30;;;6.57;;
6013;SDS011;3035;49.928;8.410;2023-02-08T11:44:46;20.37;;;6.80;;
6013;SDS011;3035;49.928;8.410;2023-02-08T11:47:16;10.90;;;5.77;;
6013;SDS011;3035;49.928;8.410;2023-02-08T11:49:50;10.87;;;6.47;;
6013;SDS011;3035;49.928;8.410;2023-02-08T11:52:18;10.30;;;6.80;;
6013;SDS011;3035;49.928;8.410;2023-02-08T12:00:22;13.07;;;7.80;;
6013;SDS011;3035;49.928;8.410;2023-02-08T12:02:54;12.30;;;7.60;;
6013;SDS011;3035;49.928;8.410;2023-02-08T12:05:37;20.93;;;7.47;;
6013;SDS011;3035;49.928;8.410;2023-02-08T12:08:06;11.40;;;6.57;;
6013;SDS011;3035;49.928;8.410;2023-02-08T12:10:44;13.53;;;7.70;;
6013;SDS011;3035;49.928;8.410;2023-02-08T12:13:26;13.13;;;7.00;;
6013;SDS011;3035;49.928;8.410;2023-02-08T12:19:00;12.00;;;7.03;;
6013;SDS011;3035;49.928;8.410;2023-02-08T12:21:42;9.33;;;5.80;;
6013;SDS011;3035;49.928;8.410;2023-02-08T12:27:02;9.20;;;6.43;;
6013;SDS011;3035;49.928;8.410;2023-02-08T12:29:47;11.07;;;6.60;;
6013;SDS011;3035;49.928;8.410;2023-02-08T12:32:24;15.90;;;6.43;;
6013;SDS011;3035;49.928;8.410;2023-02-08T12:38:21;10.77;;;5.80;;
6013;SDS011;3035;49.928;8.410;2023-02-08T12:41:00;16.53;;;7.80;;
6013;SDS011;3035;49.928;8.410;2023-02-08T12:49:41;15.37;;;7.50;;
6013;SDS011;3035;49.928;8.410;2023-02-08T12:52:21;11.63;;;6.87;;
6013;SDS011;3035;49.928;8.410;2023-02-08T12:57:42;11.33;;;6.73;;
6013;SDS011;3035;49.928;8.410;2023-02-08T13:00:15;13.60;;;7.67;;
6013;SDS011;3035;49.928;8.410;2023-02-08T13:02:47;11.10;;;6.90;;
6013;SDS011;3035;49.928;8.410;2023-02-08T13:05:28;13.63;;;6.23;;
6013;SDS011;3035;49.928;8.410;2023-02-08T13:10:57;8.97;;;6.13;;
6013;SDS011;3035;49.928;8.410;2023-02-08T13:13:26;12.70;;;6.37;;
6013;SDS011;3035;49.928;8.410;2023-02-08T13:15:55;7.87;;;4.97;;
6013;SDS011;3035;49.928;8.410;2023-02-08T13:18:26;11.37;;;6.30;;
6013;SDS011;3035;49.928;8.410;2023-02-08T13:20:58;13.70;;;6.40;;
6013;SDS011;3035;49.928;8.410;2023-02-08T13:23:32;12.57;;;5.93;;
6013;SDS011;3035;49.928;8.410;2023-02-08T13:26:06;15.03;;;6.30;;
6013;SDS011;3035;49.928;8.410;2023-02-08T13:28:35;12.40;;;6.67;;
6013;SDS011;3035;49.928;8.410;2023-02-08T13:31:06;9.40;;;6.10;;
6013;SDS011;3035;49.928;8.410;2023-02-08T13:33:38;9.63;;;5.93;;
6013;SDS011;3035;49.928;8.410;2023-02-08T13:36:18;10.20;;;6.17;;
6013;SDS011;3035;49.928;8.410;2023-02-08T13:38:46;11.87;;;7.00;;
6013;SDS011;3035;49.928;8.410;2023-02-08T13:41:14;10.37;;;6.73;;
6013;SDS011;3035;49.928;8.410;2023-02-08T13:46:27;14.87;;;6.63;;
6013;SDS011;3035;49.928;8.410;2023-02-08T13:48:56;10.90;;;6.13;;
6013;SDS011;3035;49.928;8.410;2023-02-08T13:54:18;12.87;;;7.47;;
6013;SDS011;3035;49.928;8.410;2023-02-08T13:56:48;16.50;;;7.30;;
6013;SDS011;3035;49.928;8.410;2023-02-08T14:04:47;11.07;;;6.33;;
6013;SDS011;3035;49.928;8.410;2023-02-08T14:07:20;14.13;;;6.73;;
6013;SDS011;3035;49.928;8.410;2023-02-08T14:12:35;9.37;;;5.80;;
6013;SDS011;3035;49.928;8.410;2023-02-08T14:15:22;8.90;;;5.63;;
6013;SDS011;3035;49.928;8.410;2023-02-08T14:17:50;13.30;;;6.47;;
6013;SDS011;3035;49.928;8.410;2023-02-08T14:20:27;10.23;;;6.00;;
6013;SDS011;3035;49.928;8.410;2023-02-08T14:22:58;8.17;;;5.47;;
6013;SDS011;3035;49.928;8.410;2023-02-08T14:25:29;8.97;;;5.67;;
6013;SDS011;3035;49.928;8.410;2023-02-08T14:28:06;8.60;;;5.87;;
6013;SDS011;3035;49.928;8.410;2023-02-08T14:30:35;10.60;;;6.10;;
6013;SDS011;3035;49.928;8.410;2023-02-08T14:33:10;11.33;;;6.20;;
6013;SDS011;3035;49.928;8.410;2023-02-08T14:35:41;8.87;;;5.10;;
6013;SDS011;3035;49.928;8.410;2023-02-08T14:41:04;10.97;;;5.47;;
6013;SDS011;3035;49.928;8.410;2023-02-08T14:43:33;11.13;;;5.93;;
6013;SDS011;3035;49.928;8.410;2023-02-08T14:48:59;10.40;;;4.97;;
6013;SDS011;3035;49.928;8.410;2023-02-08T14:51:30;8.27;;;5.07;;
6013;SDS011;3035;49.928;8.410;2023-02-08T14:53:57;8.70;;;5.53;;
6013;SDS011;3035;49.928;8.410;2023-02-08T14:56:27;8.60;;;4.90;;
6013;SDS011;3035;49.928;8.410;2023-02-08T14:58:56;5.40;;;4.17;;
6013;SDS011;3035;49.928;8.410;2023-02-08T15:04:11;8.93;;;4.57;;
6013;SDS011;3035;49.928;8.410;2023-02-08T15:06:45;7.40;;;4.80;;
6013;SDS011;3035;49.928;8.410;2023-02-08T15:09:23;7.27;;;4.47;;
6013;SDS011;3035;49.928;8.410;2023-02-08T15:11:57;10.77;;;4.10;;
6013;SDS011;3035;49.928;8.410;2023-02-08T15:14:26;7.60;;;4.50;;
6013;SDS011;3035;49.928;8.410;2023-02-08T15:16:54;10.40;;;5.00;;
6013;SDS011;3035;49.928;8.410;2023-02-08T15:19:25;5.70;;;4.13;;
6013;SDS011;3035;49.928;8.410;2023-02-08T15:21:54;9.23;;;4.73;;
6013;SDS011;3035;49.928;8.410;2023-02-08T15:24:23;8.60;;;4.30;;
6013;SDS011;3035;49.928;8.410;2023-02-08T15:26:52;6.00;;;3.73;;
6013;SDS011;3035;49.928;8.410;2023-02-08T15:29:25;10.93;;;5.90;;
6013;SDS011;3035;49.928;8.410;2023-02-08T15:31:52;6.33;;;4.50;;
6013;SDS011;3035;49.928;8.410;2023-02-08T15:34:21;9.70;;;5.50;;
6013;SDS011;3035;49.928;8.410;2023-02-08T15:36:51;7.97;;;5.30;;
6013;SDS011;3035;49.928;8.410;2023-02-08T15:42:00;11.87;;;6.23;;
6013;SDS011;3035;49.928;8.410;2023-02-08T15:44:29;13.43;;;5.33;;
6013;SDS011;3035;49.928;8.410;2023-02-08T15:46:58;12.23;;;5.67;;
6013;SDS011;3035;49.928;8.410;2023-02-08T15:49:29;11.40;;;5.23;;
6013;SDS011;3035;49.928;8.410;2023-02-08T15:52:04;8.10;;;5.43;;
6013;SDS011;3035;49.928;8.410;2023-02-08T15:54:33;7.10;;;4.40;;
6013;SDS011;3035;49.928;8.410;2023-02-08T15:57:06;8.83;;;4.90;;
6013;SDS011;3035;49.928;8.410;2023-02-08T15:59:34;9.93;;;5.50;;
6013;SDS011;3035;49.928;8.410;2023-02-08T16:02:08;10.80;;;4.97;;
6013;SDS011;3035;49.928;8.410;2023-02-08T16:04:50;10.57;;;4.70;;
6013;SDS011;3035;49.928;8.410;2023-02-08T16:07:21;11.20;;;5.40;;
6013;SDS011;3035;49.928;8.410;2023-02-08T16:09:51;7.67;;;4.43;;
6013;SDS011;3035;49.928;8.410;2023-02-08T16:12:21;10.10;;;5.10;;
6013;SDS011;3035;49.928;8.410;2023-02-08T16:14:49;8.47;;;4.97;;
6013;SDS011;3035;49.928;8.410;2023-02-08T16:20:00;9.70;;;5.60;;
6013;SDS011;3035;49.928;8.410;2023-02-08T16:22:31;10.20;;;5.00;;
6013;SDS011;3035;49.928;8.410;2023-02-08T16:27:46;15.03;;;5.73;;
6013;SDS011;3035;49.928;8.410;2023-02-08T16:30:18;10.50;;;4.53;;
6013;SDS011;3035;49.928;8.410;2023-02-08T16:32:47;9.30;;;4.90;;
6013;SDS011;3035;49.928;8.410;2023-02-08T16:35:20;8.60;;;4.30;;
6013;SDS011;3035;49.928;8.410;2023-02-08T16:37:52;8.00;;;4.80;;
6013;SDS011;3035;49.928;8.410;2023-02-08T16:43:20;10.20;;;4.87;;
6013;SDS011;3035;49.928;8.410;2023-02-08T16:48:51;9.50;;;5.47;;
6013;SDS011;3035;49.928;8.410;2023-02-08T16:51:21;10.27;;;6.20;;
6013;SDS011;3035;49.928;8.410;2023-02-08T16:54:00;12.50;;;6.10;;